createdAt,value
2023-01-24T00:01:19.983Z,17.73
2023-01-24T00:03:48.212Z,19.13
2023-01-24T00:06:16.490Z,20.25
2023-01-24T00:08:44.603Z,19.45
2023-01-24T00:11:14.207Z,20.38
2023-01-24T00:13:43.772Z,21.02
2023-01-24T00:16:16.189Z,23.20
2023-01-24T00:18:45.028Z,22.20
2023-01-24T00:21:15.545Z,23.67
2023-01-24T00:23:45.650Z,24.75
2023-01-24T00:26:14.712Z,25.05
2023-01-24T00:28:46.178Z,23.60
2023-01-24T00:31:14.645Z,23.45
2023-01-24T00:33:43.157Z,23.77
2023-01-24T00:36:12.111Z,22.60
2023-01-24T00:38:40.327Z,21.48
2023-01-24T00:41:08.642Z,20.67
2023-01-24T00:43:37.239Z,19.55
2023-01-24T00:46:10.194Z,18.20
2023-01-24T00:48:38.910Z,18.00
2023-01-24T00:51:07.435Z,17.83
2023-01-24T00:53:35.885Z,19.17
2023-01-24T00:56:04.499Z,19.55
2023-01-24T00:58:34.032Z,19.67
2023-01-24T01:01:04.578Z,19.85
2023-01-24T01:03:34.251Z,18.05
2023-01-24T01:06:03.867Z,18.98
2023-01-24T01:08:32.126Z,18.90
2023-01-24T01:11:01.070Z,19.75
2023-01-24T01:13:30.415Z,19.92
2023-01-24T01:16:06.218Z,20.35
2023-01-24T01:18:37.436Z,19.35
2023-01-24T01:21:06.484Z,18.90
2023-01-24T01:23:34.622Z,19.80
2023-01-24T01:26:03.526Z,20.38
2023-01-24T01:28:32.049Z,20.05
2023-01-24T01:31:00.590Z,18.23
2023-01-24T01:33:28.918Z,20.33
2023-01-24T01:35:58.625Z,18.33
2023-01-24T01:38:28.763Z,18.20
2023-01-24T01:40:57.224Z,18.23
2023-01-24T01:43:27.198Z,16.83
2023-01-24T01:45:56.975Z,16.90
2023-01-24T01:48:29.802Z,17.10
2023-01-24T01:51:03.628Z,16.20
2023-01-24T01:53:36.596Z,17.15
2023-01-24T01:56:10.033Z,17.40
2023-01-24T01:58:38.604Z,16.48
2023-01-24T02:01:10.935Z,16.83
2023-01-24T02:03:46.965Z,18.05
2023-01-24T02:06:32.089Z,17.15
2023-01-24T02:09:01.244Z,18.08
2023-01-24T02:11:42.003Z,17.58
2023-01-24T02:14:31.075Z,16.00
2023-01-24T02:16:59.485Z,17.02
2023-01-24T02:19:50.887Z,16.58
2023-01-24T02:22:26.825Z,16.17
2023-01-24T02:27:30.771Z,15.43
2023-01-24T02:29:59.271Z,15.82
2023-01-24T02:32:27.625Z,15.48
2023-01-24T02:34:55.774Z,15.27
2023-01-24T02:37:27.048Z,17.55
2023-01-24T02:39:58.325Z,19.90
2023-01-24T02:42:30.926Z,19.17
2023-01-24T02:45:07.314Z,18.08
2023-01-24T02:47:39.641Z,18.40
2023-01-24T02:50:09.547Z,17.17
2023-01-24T02:52:55.700Z,18.73
2023-01-24T02:55:24.474Z,18.63
2023-01-24T02:58:07.086Z,18.55
2023-01-24T03:00:41.884Z,16.65
2023-01-24T03:03:12.631Z,18.63
2023-01-24T03:05:57.833Z,18.25
2023-01-24T03:08:37.210Z,16.20
2023-01-24T03:11:12.945Z,18.20
2023-01-24T03:13:59.042Z,20.02
2023-01-24T03:16:46.841Z,22.48
2023-01-24T03:19:32.969Z,19.88
2023-01-24T03:22:20.037Z,17.85
2023-01-24T03:25:05.476Z,18.52
2023-01-24T03:27:50.990Z,22.73
2023-01-24T03:30:41.845Z,15.57
2023-01-24T03:33:28.771Z,14.48
2023-01-24T03:35:56.990Z,14.77
2023-01-24T03:38:45.663Z,14.35
2023-01-24T03:41:14.058Z,17.03
2023-01-24T03:43:44.828Z,15.55
2023-01-24T03:46:14.163Z,15.48
2023-01-24T03:48:54.987Z,15.30
2023-01-24T03:51:48.825Z,17.83
2023-01-24T03:54:17.324Z,16.65
2023-01-24T03:56:55.423Z,15.70
2023-01-24T03:59:24.830Z,16.40
2023-01-24T04:01:53.353Z,17.98
2023-01-24T04:04:48.125Z,18.05
2023-01-24T04:07:26.227Z,17.10
2023-01-24T04:10:00.128Z,17.80
2023-01-24T04:12:30.245Z,17.83
2023-01-24T04:14:58.521Z,17.92
2023-01-24T04:17:27.321Z,18.83
2023-01-24T04:19:57.218Z,20.10
2023-01-24T04:22:26.490Z,19.80
2023-01-24T04:24:57.384Z,18.55
2023-01-24T04:27:29.875Z,19.38
2023-01-24T04:30:23.909Z,18.30
2023-01-24T04:32:55.411Z,20.23
2023-01-24T04:35:29.357Z,20.42
2023-01-24T04:38:02.764Z,20.20
2023-01-24T04:40:41.595Z,22.45
2023-01-24T04:43:10.166Z,20.08
2023-01-24T04:45:40.388Z,19.90
2023-01-24T04:48:11.850Z,30.35
2023-01-24T04:50:41.341Z,27.65
2023-01-24T04:53:09.818Z,22.98
2023-01-24T04:55:38.108Z,21.88
2023-01-24T04:58:06.214Z,20.27
2023-01-24T05:00:34.365Z,21.25
2023-01-24T05:03:03.687Z,20.70
2023-01-24T05:05:32.042Z,18.80
2023-01-24T05:08:03.206Z,19.52
2023-01-24T05:10:31.589Z,19.70
2023-01-24T05:12:59.801Z,18.13
2023-01-24T05:15:29.273Z,15.52
2023-01-24T05:17:59.029Z,15.85
2023-01-24T05:20:27.955Z,15.15
2023-01-24T05:22:58.556Z,14.00
2023-01-24T05:25:30.292Z,16.40
2023-01-24T05:27:58.553Z,15.68
2023-01-24T05:30:27.935Z,16.70
2023-01-24T05:33:02.334Z,17.83
2023-01-24T05:35:30.519Z,17.10
2023-01-24T05:37:59.521Z,16.65
2023-01-24T05:40:28.607Z,16.15
2023-01-24T05:42:58.812Z,17.42
2023-01-24T05:45:27.421Z,19.23
2023-01-24T05:47:57.540Z,18.02
2023-01-24T05:50:26.157Z,18.70
2023-01-24T05:53:14.219Z,22.77
2023-01-24T05:55:42.619Z,25.98
2023-01-24T05:58:12.242Z,24.10
2023-01-24T06:00:56.157Z,26.35
2023-01-24T06:03:36.021Z,24.15
2023-01-24T06:06:04.360Z,25.67
2023-01-24T06:08:32.585Z,28.52
2023-01-24T06:11:06.550Z,27.88
2023-01-24T06:13:37.207Z,29.58
2023-01-24T06:16:08.039Z,32.08
2023-01-24T06:18:37.214Z,38.05
2023-01-24T06:21:12.386Z,38.55
2023-01-24T06:23:41.018Z,32.40
2023-01-24T06:26:12.034Z,28.25
2023-01-24T06:28:42.158Z,32.38
2023-01-24T06:31:23.213Z,25.15
2023-01-24T06:34:04.950Z,24.42
2023-01-24T06:36:53.526Z,19.85
2023-01-24T06:39:22.370Z,20.83
2023-01-24T06:41:50.973Z,22.50
2023-01-24T06:44:23.392Z,22.90
2023-01-24T06:46:51.493Z,24.75
2023-01-24T06:49:19.791Z,25.02
2023-01-24T06:51:52.416Z,26.23
2023-01-24T06:54:20.648Z,28.98
2023-01-24T06:56:48.792Z,27.52
2023-01-24T06:59:16.978Z,26.77
2023-01-24T07:01:46.589Z,25.70
2023-01-24T07:04:14.844Z,26.05
2023-01-24T07:06:43.083Z,24.95
2023-01-24T07:09:11.525Z,23.25
2023-01-24T07:11:39.604Z,23.63
2023-01-24T07:14:07.908Z,23.45
2023-01-24T07:16:37.835Z,23.00
2023-01-24T07:19:10.434Z,24.40
2023-01-24T07:21:41.977Z,24.52
2023-01-24T07:24:15.831Z,24.20
2023-01-24T07:26:44.708Z,24.17
2023-01-24T07:29:13.314Z,24.38
2023-01-24T07:31:41.535Z,24.02
2023-01-24T07:34:13.939Z,23.50
2023-01-24T07:36:44.137Z,22.33
2023-01-24T07:39:12.610Z,29.05
2023-01-24T07:41:41.745Z,27.13
2023-01-24T07:44:10.024Z,24.63
2023-01-24T07:46:38.430Z,24.08
2023-01-24T07:49:06.601Z,23.92
2023-01-24T07:51:36.471Z,26.92
2023-01-24T07:54:05.172Z,29.05
2023-01-24T07:56:33.801Z,30.35
2023-01-24T07:59:01.988Z,33.35
2023-01-24T08:01:30.135Z,32.42
2023-01-24T08:03:59.742Z,34.45
2023-01-24T08:06:28.058Z,34.38
2023-01-24T08:08:57.616Z,35.67
2023-01-24T08:11:26.543Z,31.83
2023-01-24T08:13:55.933Z,34.00
2023-01-24T08:16:27.013Z,34.10
2023-01-24T08:18:55.433Z,32.78
2023-01-24T08:21:23.574Z,34.30
2023-01-24T08:23:51.832Z,33.20
2023-01-24T08:26:22.221Z,36.83
2023-01-24T08:28:50.951Z,34.20
2023-01-24T08:31:19.338Z,35.00
2023-01-24T08:33:47.516Z,36.30
2023-01-24T08:36:15.638Z,32.72
2023-01-24T08:38:43.793Z,34.22
2023-01-24T08:41:12.028Z,34.85
2023-01-24T08:43:41.519Z,33.67
2023-01-24T08:46:09.774Z,32.33
2023-01-24T08:48:38.119Z,32.28
2023-01-24T08:51:07.935Z,31.10
2023-01-24T08:53:36.178Z,32.53
2023-01-24T08:56:04.573Z,28.10
2023-01-24T08:58:34.402Z,29.95
2023-01-24T09:01:08.241Z,29.80
2023-01-24T09:03:37.740Z,17.88
2023-01-24T09:06:06.930Z,19.70
2023-01-24T09:08:36.894Z,18.38
2023-01-24T09:11:05.640Z,16.30
2023-01-24T09:13:33.813Z,16.10
2023-01-24T09:16:03.392Z,16.50
2023-01-24T09:18:31.526Z,17.40
2023-01-24T09:21:03.936Z,17.02
2023-01-24T09:23:32.228Z,17.48
2023-01-24T09:26:00.421Z,15.77
2023-01-24T09:28:28.551Z,37.03
2023-01-24T09:30:56.849Z,75.90
2023-01-24T09:33:26.697Z,60.38
2023-01-24T09:35:56.394Z,24.58
2023-01-24T09:38:24.786Z,37.55
2023-01-24T09:40:57.998Z,16.27
2023-01-24T09:43:46.524Z,15.50
2023-01-24T09:46:29.603Z,17.58
2023-01-24T09:49:07.464Z,16.55
2023-01-24T09:51:39.064Z,18.80
2023-01-24T09:54:08.082Z,15.70
2023-01-24T09:56:38.421Z,16.02
2023-01-24T09:59:21.313Z,13.57
2023-01-24T10:01:50.092Z,15.32
2023-01-24T10:04:23.018Z,16.27
2023-01-24T10:07:28.137Z,14.95
2023-01-24T10:10:12.699Z,15.55
2023-01-24T10:12:54.647Z,16.67
2023-01-24T10:15:33.314Z,16.67
2023-01-24T10:18:15.711Z,16.35
2023-01-24T10:20:54.269Z,16.35
2023-01-24T10:23:26.035Z,17.40
2023-01-24T10:25:58.503Z,17.63
2023-01-24T10:28:30.234Z,15.50
2023-01-24T10:31:04.191Z,18.23
2023-01-24T10:33:35.656Z,17.33
2023-01-24T10:36:11.219Z,15.70
2023-01-24T10:38:40.171Z,16.05
2023-01-24T10:41:20.466Z,16.17
2023-01-24T10:43:55.534Z,16.30
2023-01-24T10:46:51.743Z,16.58
2023-01-24T10:49:24.819Z,17.63
2023-01-24T10:52:16.085Z,16.58
2023-01-24T10:54:50.354Z,13.48
2023-01-24T10:57:22.255Z,37.85
2023-01-24T10:59:50.733Z,16.50
2023-01-24T11:02:24.298Z,58.70
2023-01-24T11:05:01.482Z,21.65
2023-01-24T11:07:33.919Z,24.90
2023-01-24T11:10:02.920Z,19.10
2023-01-24T11:12:31.300Z,14.65
2023-01-24T11:14:59.466Z,16.35
2023-01-24T11:17:33.653Z,15.80
2023-01-24T11:20:07.176Z,15.82
2023-01-24T11:22:37.546Z,14.65
2023-01-24T11:25:14.958Z,14.98
2023-01-24T11:27:48.399Z,16.73
2023-01-24T11:30:22.368Z,16.70
2023-01-24T11:33:03.679Z,14.40
2023-01-24T11:35:36.685Z,14.43
2023-01-24T11:38:26.664Z,11.68
2023-01-24T11:41:06.059Z,11.65
2023-01-24T11:43:59.762Z,12.65
2023-01-24T11:46:41.514Z,13.70
2023-01-24T11:49:34.606Z,12.82
2023-01-24T11:52:14.870Z,12.02
2023-01-24T11:54:54.682Z,13.75
2023-01-24T11:57:34.410Z,14.98
2023-01-24T12:00:22.775Z,14.73
2023-01-24T12:03:12.153Z,15.18
2023-01-24T12:05:53.098Z,22.15
2023-01-24T12:08:37.475Z,17.45
2023-01-24T12:11:33.605Z,15.73
2023-01-24T12:14:21.203Z,16.08
2023-01-24T12:16:57.922Z,14.98
2023-01-24T12:19:41.035Z,15.00
2023-01-24T12:22:14.719Z,15.60
2023-01-24T12:24:45.991Z,14.45
2023-01-24T12:27:19.143Z,18.02
2023-01-24T12:29:56.354Z,14.80
2023-01-24T12:32:30.010Z,13.40
2023-01-24T12:35:04.715Z,13.38
2023-01-24T12:37:41.251Z,15.02
2023-01-24T12:40:21.066Z,15.15
2023-01-24T12:42:57.791Z,13.30
2023-01-24T12:45:31.056Z,14.88
2023-01-24T12:48:07.888Z,13.20
2023-01-24T12:50:43.699Z,13.65
2023-01-24T12:53:18.221Z,12.88
2023-01-24T12:55:55.233Z,13.55
2023-01-24T12:58:30.083Z,15.00
2023-01-24T13:01:10.082Z,12.85
2023-01-24T13:03:56.592Z,11.40
2023-01-24T13:06:31.422Z,12.68
2023-01-24T13:09:13.611Z,12.80
2023-01-24T13:11:47.303Z,14.90
2023-01-24T13:14:22.429Z,15.10
2023-01-24T13:17:15.155Z,16.40
2023-01-24T13:19:56.385Z,15.70
2023-01-24T13:22:46.101Z,15.60
2023-01-24T13:25:36.107Z,15.73
2023-01-24T13:28:10.546Z,16.17
2023-01-24T13:30:48.690Z,17.40
2023-01-24T13:33:21.084Z,20.20
2023-01-24T13:35:51.038Z,28.92
2023-01-24T13:38:24.854Z,16.77
2023-01-24T13:41:02.935Z,18.42
2023-01-24T13:43:59.400Z,18.48
2023-01-24T13:47:00.669Z,15.75
2023-01-24T13:50:05.022Z,17.30
2023-01-24T13:52:46.238Z,18.42
2023-01-24T13:56:00.380Z,16.00
2023-01-24T13:58:36.241Z,16.83
2023-01-24T14:01:05.896Z,15.93
2023-01-24T14:03:38.344Z,15.52
2023-01-24T14:06:12.017Z,17.67
2023-01-24T14:08:47.729Z,17.15
2023-01-24T14:11:41.009Z,16.35
2023-01-24T14:14:37.125Z,16.27
2023-01-24T14:17:31.217Z,42.33
2023-01-24T14:20:00.420Z,100.03
2023-01-24T14:22:39.974Z,54.63
2023-01-24T14:25:30.094Z,57.55
2023-01-24T14:28:02.487Z,50.85
2023-01-24T14:30:38.202Z,42.38
2023-01-24T14:33:15.018Z,19.70
2023-01-24T14:35:57.078Z,18.13
2023-01-24T14:38:26.827Z,19.65
2023-01-24T14:40:56.598Z,19.02
2023-01-24T14:43:35.925Z,20.75
2023-01-24T14:46:20.373Z,19.27
2023-01-24T14:48:48.829Z,21.20
2023-01-24T14:51:19.531Z,20.30
2023-01-24T14:53:54.281Z,21.67
2023-01-24T14:56:23.512Z,19.17
2023-01-24T14:58:55.063Z,21.27
2023-01-24T15:01:30.271Z,21.65
2023-01-24T15:03:58.469Z,22.50
2023-01-24T15:06:28.599Z,21.45
2023-01-24T15:09:01.910Z,19.73
2023-01-24T15:11:35.744Z,20.67
2023-01-24T15:14:06.052Z,21.55
2023-01-24T15:16:37.448Z,21.42
2023-01-24T15:19:07.729Z,20.15
2023-01-24T15:21:40.872Z,19.73
2023-01-24T15:24:21.877Z,20.42
2023-01-24T15:26:50.464Z,20.23
2023-01-24T15:29:51.560Z,19.67
2023-01-24T15:32:41.624Z,20.13
2023-01-24T15:35:24.055Z,22.88
2023-01-24T15:38:23.817Z,21.67
2023-01-24T15:41:20.881Z,21.88
2023-01-24T15:44:01.599Z,20.90
2023-01-24T15:46:51.652Z,23.00
2023-01-24T15:49:33.939Z,29.63
2023-01-24T15:52:14.667Z,26.13
2023-01-24T15:54:44.289Z,29.77
2023-01-24T15:57:21.868Z,26.52
2023-01-24T15:59:54.457Z,28.70
2023-01-24T16:02:23.069Z,28.55
2023-01-24T16:04:51.461Z,28.00
2023-01-24T16:07:21.791Z,28.00
2023-01-24T16:09:50.850Z,31.45
2023-01-24T16:12:22.521Z,31.40
2023-01-24T16:15:07.748Z,28.77
2023-01-24T16:17:40.027Z,28.38
2023-01-24T16:20:19.296Z,28.40
2023-01-24T16:22:47.830Z,25.17
2023-01-24T16:25:20.260Z,23.48
2023-01-24T16:27:50.904Z,24.33
2023-01-24T16:30:21.545Z,22.75
2023-01-24T16:32:50.711Z,21.88
2023-01-24T16:35:19.237Z,22.90
2023-01-24T16:37:47.649Z,19.75
2023-01-24T16:40:19.198Z,20.98
2023-01-24T16:42:49.960Z,21.38
2023-01-24T16:45:25.066Z,24.63
2023-01-24T16:47:53.473Z,26.13
2023-01-24T16:50:22.142Z,27.35
2023-01-24T16:52:50.441Z,29.00
2023-01-24T16:55:20.418Z,27.70
2023-01-24T16:57:50.381Z,30.17
2023-01-24T17:00:19.480Z,29.52
2023-01-24T17:02:52.768Z,28.02
2023-01-24T17:05:22.323Z,29.05
2023-01-24T17:07:53.290Z,29.77
2023-01-24T17:10:22.037Z,31.13
2023-01-24T17:12:52.449Z,31.42
2023-01-24T17:15:22.125Z,30.17
2023-01-24T17:17:50.548Z,30.40
2023-01-24T17:20:19.676Z,32.30
2023-01-24T17:22:48.771Z,41.30
2023-01-24T17:25:17.817Z,34.60
2023-01-24T17:27:46.891Z,29.33
2023-01-24T17:30:17.567Z,30.98
2023-01-24T17:32:46.364Z,32.25
2023-01-24T17:35:15.862Z,31.48
2023-01-24T17:37:44.462Z,29.58
2023-01-24T17:40:13.915Z,31.17
2023-01-24T17:42:44.639Z,32.58
2023-01-24T17:45:17.275Z,35.08
2023-01-24T17:47:46.331Z,32.60
2023-01-24T17:50:15.682Z,31.63
2023-01-24T17:52:44.338Z,30.88
2023-01-24T17:55:14.377Z,29.67
2023-01-24T17:57:43.698Z,32.20
2023-01-24T18:00:15.044Z,30.23
2023-01-24T18:02:47.904Z,29.45
2023-01-24T18:05:17.320Z,30.25
2023-01-24T18:07:47.803Z,28.27
2023-01-24T18:10:17.426Z,30.42
2023-01-24T18:12:46.927Z,30.73
2023-01-24T18:15:16.149Z,29.33
2023-01-24T18:17:47.233Z,28.02
2023-01-24T18:20:16.516Z,28.90
2023-01-24T18:22:46.210Z,31.13
2023-01-24T18:25:15.968Z,25.88
2023-01-24T18:27:46.352Z,28.15
2023-01-24T18:30:17.325Z,26.75
2023-01-24T18:32:47.228Z,25.90
2023-01-24T18:35:16.453Z,26.70
2023-01-24T18:37:46.984Z,26.90
2023-01-24T18:40:16.788Z,26.65
2023-01-24T18:42:45.796Z,27.17
2023-01-24T18:45:16.725Z,25.95
2023-01-24T18:47:47.429Z,26.10
2023-01-24T18:50:17.077Z,25.38
2023-01-24T18:52:50.136Z,25.67
2023-01-24T18:55:21.688Z,26.45
2023-01-24T18:57:52.999Z,26.65
2023-01-24T19:00:26.526Z,25.48
2023-01-24T19:02:58.802Z,26.27
2023-01-24T19:05:28.043Z,25.48
2023-01-24T19:07:58.515Z,23.75
2023-01-24T19:10:28.232Z,24.27
2023-01-24T19:12:58.669Z,24.35
2023-01-24T19:15:28.810Z,25.15
2023-01-24T19:18:03.856Z,31.27
2023-01-24T19:20:34.056Z,30.55
2023-01-24T19:23:04.647Z,30.70
2023-01-24T19:25:34.016Z,31.23
2023-01-24T19:28:03.319Z,28.88
2023-01-24T19:30:33.572Z,32.20
2023-01-24T19:33:06.427Z,30.15
2023-01-24T19:35:37.805Z,39.83
2023-01-24T19:38:07.527Z,40.75
2023-01-24T19:40:37.372Z,40.67
2023-01-24T19:43:08.753Z,40.42
2023-01-24T19:45:43.561Z,39.47
2023-01-24T19:48:16.103Z,41.83
2023-01-24T19:50:48.113Z,42.35
2023-01-24T19:53:18.124Z,42.38
2023-01-24T19:55:47.899Z,47.13
2023-01-24T19:58:22.403Z,43.25
2023-01-24T20:00:54.985Z,42.28
2023-01-24T20:03:29.708Z,41.97
2023-01-24T20:05:59.044Z,42.28
2023-01-24T20:08:34.980Z,42.35
2023-01-24T20:11:09.257Z,39.15
2023-01-24T20:13:39.011Z,36.42
2023-01-24T20:16:11.542Z,38.30
2023-01-24T20:18:42.948Z,37.13
2023-01-24T20:21:13.752Z,37.13
2023-01-24T20:23:45.045Z,36.67
2023-01-24T20:26:16.736Z,31.48
2023-01-24T20:28:46.857Z,32.03
2023-01-24T20:31:17.363Z,29.40
2023-01-24T20:33:50.261Z,29.70
2023-01-24T20:36:20.991Z,27.92
2023-01-24T20:38:56.108Z,27.73
2023-01-24T20:41:27.207Z,27.20
2023-01-24T20:44:02.875Z,26.63
2023-01-24T20:46:33.428Z,26.35
2023-01-24T20:49:04.559Z,26.17
2023-01-24T20:51:35.093Z,25.65
2023-01-24T20:54:05.510Z,26.13
2023-01-24T20:56:37.926Z,24.75
2023-01-24T20:59:07.939Z,22.88
2023-01-24T21:01:37.935Z,24.33
2023-01-24T21:04:08.439Z,24.15
2023-01-24T21:06:42.328Z,23.20
2023-01-24T21:09:12.664Z,24.15
2023-01-24T21:11:44.221Z,22.08
2023-01-24T21:14:16.920Z,21.98
2023-01-24T21:16:45.943Z,23.30
2023-01-24T21:19:18.990Z,23.08
2023-01-24T21:21:48.679Z,22.90
2023-01-24T21:24:34.342Z,22.50
2023-01-24T21:27:04.552Z,21.95
2023-01-24T21:29:33.321Z,24.38
2023-01-24T21:32:02.901Z,24.02
2023-01-24T21:34:33.250Z,25.88
2023-01-24T21:37:01.829Z,25.98
2023-01-24T21:39:30.560Z,24.17
2023-01-24T21:42:00.626Z,23.42
2023-01-24T21:44:32.146Z,24.40
2023-01-24T21:47:00.735Z,23.15
2023-01-24T21:49:29.584Z,25.02
2023-01-24T21:52:00.795Z,24.00
2023-01-24T21:54:31.741Z,25.48
2023-01-24T21:57:34.114Z,22.73
2023-01-24T22:00:04.170Z,25.38
2023-01-24T22:02:41.388Z,26.02
2023-01-24T22:05:10.930Z,25.30
2023-01-24T22:07:40.809Z,26.65
2023-01-24T22:10:10.359Z,27.63
2023-01-24T22:12:39.983Z,27.50
2023-01-24T22:15:10.535Z,28.45
2023-01-24T22:17:40.870Z,25.63
2023-01-24T22:20:16.391Z,24.25
2023-01-24T22:23:05.321Z,25.05
2023-01-24T22:25:46.387Z,25.05
2023-01-24T22:28:19.260Z,23.98
2023-01-24T22:30:48.452Z,25.35
2023-01-24T22:33:17.329Z,24.70
2023-01-24T22:35:46.822Z,27.00
2023-01-24T22:38:16.546Z,25.45
2023-01-24T22:40:44.687Z,25.42
2023-01-24T22:43:13.719Z,25.88
2023-01-24T22:45:41.964Z,27.42
2023-01-24T22:48:14.785Z,25.75
2023-01-24T22:50:43.267Z,25.52
2023-01-24T22:53:11.584Z,24.40
2023-01-24T22:55:42.436Z,26.80
2023-01-24T22:58:10.630Z,23.70
2023-01-24T23:00:38.795Z,23.27
2023-01-24T23:03:07.061Z,24.65
2023-01-24T23:05:35.451Z,23.42
2023-01-24T23:08:03.663Z,27.10
2023-01-24T23:10:32.155Z,27.75
2023-01-24T23:13:19.003Z,28.63
2023-01-24T23:16:04.621Z,30.70
2023-01-24T23:18:54.057Z,31.90
2023-01-24T23:21:35.881Z,27.05
2023-01-24T23:24:04.449Z,30.40
2023-01-24T23:26:33.113Z,28.48
2023-01-24T23:29:34.325Z,38.22
2023-01-24T23:32:03.642Z,27.83
2023-01-24T23:34:36.555Z,25.20
2023-01-24T23:37:04.670Z,27.00
2023-01-24T23:39:32.902Z,26.30
2023-01-24T23:42:01.015Z,25.63
2023-01-24T23:44:30.595Z,36.72
2023-01-24T23:46:58.893Z,42.38
2023-01-24T23:49:27.131Z,41.22
2023-01-24T23:51:55.277Z,38.60
2023-01-24T23:54:23.414Z,37.05
2023-01-24T23:56:51.561Z,34.28
2023-01-24T23:59:19.922Z,35.72
